createdAt,value
2022-10-26T00:02:21.750Z,11.20
2022-10-26T00:04:48.313Z,11.20
2022-10-26T00:07:14.809Z,11.30
2022-10-26T00:09:41.353Z,11.20
2022-10-26T00:12:07.829Z,11.20
2022-10-26T00:14:34.616Z,11.30
2022-10-26T00:17:01.202Z,11.30
2022-10-26T00:19:27.723Z,11.30
2022-10-26T00:21:54.303Z,11.30
2022-10-26T00:24:20.808Z,11.30
2022-10-26T00:26:47.446Z,11.20
2022-10-26T00:29:14.141Z,11.30
2022-10-26T00:31:40.663Z,11.30
2022-10-26T00:34:07.202Z,11.30
2022-10-26T00:36:33.688Z,11.30
2022-10-26T00:39:00.202Z,11.30
2022-10-26T00:41:28.908Z,11.30
2022-10-26T00:43:55.480Z,11.30
2022-10-26T00:46:24.320Z,11.40
2022-10-26T00:48:56.593Z,11.40
2022-10-26T00:51:32.755Z,11.40
2022-10-26T00:54:04.079Z,11.40
2022-10-26T00:56:31.779Z,11.50
2022-10-26T00:59:01.534Z,11.40
2022-10-26T01:01:28.774Z,11.40
2022-10-26T01:03:55.383Z,11.40
2022-10-26T01:06:21.935Z,11.40
2022-10-26T01:08:48.499Z,11.40
2022-10-26T01:11:15.594Z,11.50
2022-10-26T01:13:43.683Z,11.50
2022-10-26T01:16:16.469Z,11.50
2022-10-26T01:18:55.197Z,11.50
2022-10-26T01:21:33.994Z,11.50
2022-10-26T01:24:09.234Z,11.50
2022-10-26T01:26:38.744Z,11.50
2022-10-26T01:29:24.124Z,11.50
2022-10-26T01:32:04.242Z,11.40
2022-10-26T01:34:35.957Z,11.50
2022-10-26T01:37:13.554Z,11.50
2022-10-26T01:39:48.243Z,11.40
2022-10-26T01:42:16.551Z,11.40
2022-10-26T01:44:45.386Z,11.40
2022-10-26T01:47:13.984Z,11.50
2022-10-26T01:49:43.631Z,11.40
2022-10-26T01:52:10.709Z,11.50
2022-10-26T01:57:05.234Z,11.50
2022-10-26T01:59:37.422Z,11.50
2022-10-26T02:02:22.806Z,11.50
2022-10-26T02:05:09.062Z,11.40
2022-10-26T02:07:40.981Z,11.50
2022-10-26T02:10:26.266Z,11.50
2022-10-26T02:13:01.977Z,11.40
2022-10-26T02:15:31.596Z,11.50
2022-10-26T02:18:00.062Z,11.50
2022-10-26T02:20:28.538Z,11.50
2022-10-26T02:22:55.821Z,11.50
2022-10-26T02:25:24.167Z,11.50
2022-10-26T02:27:53.647Z,11.50
2022-10-26T02:30:20.204Z,11.50
2022-10-26T02:32:49.760Z,11.50
2022-10-26T02:35:18.670Z,11.50
2022-10-26T02:37:46.417Z,11.50
2022-10-26T02:40:16.583Z,11.50
2022-10-26T02:42:45.141Z,11.50
2022-10-26T02:45:13.868Z,11.60
2022-10-26T02:47:40.384Z,11.60
2022-10-26T02:50:07.049Z,11.60
2022-10-26T02:52:51.420Z,11.60
2022-10-26T02:55:20.964Z,11.60
2022-10-26T02:57:49.279Z,11.60
2022-10-26T03:00:17.036Z,11.60
2022-10-26T03:02:47.623Z,11.60
2022-10-26T03:05:25.813Z,11.60
2022-10-26T03:07:52.329Z,11.60
2022-10-26T03:10:18.936Z,11.60
2022-10-26T03:12:45.981Z,11.60
2022-10-26T03:15:12.599Z,11.60
2022-10-26T03:17:39.103Z,11.60
2022-10-26T03:20:05.915Z,11.60
2022-10-26T03:22:32.417Z,11.60
2022-10-26T03:24:58.963Z,11.60
2022-10-26T03:27:26.878Z,11.60
2022-10-26T03:29:53.860Z,11.60
2022-10-26T03:32:20.383Z,11.60
2022-10-26T03:34:46.920Z,11.70
2022-10-26T03:37:13.394Z,11.60
2022-10-26T03:39:39.835Z,11.60
2022-10-26T03:42:06.348Z,11.70
2022-10-26T03:44:32.811Z,11.70
2022-10-26T03:46:59.331Z,11.60
2022-10-26T03:49:25.830Z,11.60
2022-10-26T03:51:52.341Z,11.60
2022-10-26T03:54:19.163Z,11.60
2022-10-26T03:56:45.673Z,11.50
2022-10-26T03:59:12.085Z,11.60
2022-10-26T04:01:39.960Z,11.60
2022-10-26T04:04:06.601Z,11.60
2022-10-26T04:06:33.251Z,11.60
2022-10-26T04:09:02.360Z,11.60
2022-10-26T04:11:29.444Z,11.50
2022-10-26T04:13:56.177Z,11.50
2022-10-26T04:16:22.659Z,11.50
2022-10-26T04:18:49.177Z,11.40
2022-10-26T04:21:15.656Z,11.40
2022-10-26T04:23:42.149Z,11.40
2022-10-26T04:26:08.651Z,11.40
2022-10-26T04:28:35.152Z,11.30
2022-10-26T04:31:01.663Z,11.30
2022-10-26T04:33:28.131Z,11.20
2022-10-26T04:35:59.024Z,11.20
2022-10-26T04:38:25.533Z,11.20
2022-10-26T04:40:52.210Z,11.20
2022-10-26T04:43:18.732Z,11.20
2022-10-26T04:45:45.265Z,11.20
2022-10-26T04:48:12.461Z,11.20
2022-10-26T04:50:39.497Z,11.20
2022-10-26T04:53:06.525Z,11.20
2022-10-26T04:55:33.264Z,11.20
2022-10-26T04:58:01.312Z,11.20
2022-10-26T05:00:30.060Z,11.30
2022-10-26T05:03:00.665Z,11.30
2022-10-26T05:05:27.291Z,11.30
2022-10-26T05:07:54.947Z,11.30
2022-10-26T05:10:21.449Z,11.30
2022-10-26T05:12:51.864Z,11.30
2022-10-26T05:15:18.763Z,11.30
2022-10-26T05:17:45.278Z,11.20
2022-10-26T05:20:13.822Z,11.20
2022-10-26T05:22:40.835Z,11.10
2022-10-26T05:25:07.594Z,11.10
2022-10-26T05:27:34.103Z,11.10
2022-10-26T05:30:00.702Z,11.10
2022-10-26T05:32:27.220Z,11.00
2022-10-26T05:34:53.674Z,11.00
2022-10-26T05:37:20.200Z,11.00
2022-10-26T05:39:46.732Z,11.10
2022-10-26T05:42:13.235Z,11.10
2022-10-26T05:44:39.759Z,11.10
2022-10-26T05:47:06.365Z,11.10
2022-10-26T05:49:32.865Z,11.20
2022-10-26T05:51:59.799Z,11.20
2022-10-26T05:54:26.319Z,11.30
2022-10-26T05:56:52.976Z,11.30
2022-10-26T05:59:19.771Z,11.30
2022-10-26T06:02:06.720Z,11.40
2022-10-26T06:04:38.451Z,11.40
2022-10-26T06:07:15.993Z,11.50
2022-10-26T06:09:42.891Z,11.50
2022-10-26T06:12:10.188Z,11.50
2022-10-26T06:14:37.313Z,11.60
2022-10-26T06:17:11.910Z,11.60
2022-10-26T06:19:41.580Z,11.60
2022-10-26T06:22:17.102Z,11.70
2022-10-26T06:24:53.477Z,11.70
2022-10-26T06:27:25.883Z,11.70
2022-10-26T06:30:01.130Z,11.70
2022-10-26T06:32:27.903Z,11.80
2022-10-26T06:35:21.032Z,11.80
2022-10-26T06:37:49.530Z,11.90
2022-10-26T06:40:16.908Z,11.90
2022-10-26T06:42:43.871Z,11.90
2022-10-26T06:47:41.001Z,11.90
2022-10-26T06:50:16.813Z,12.00
2022-10-26T06:53:01.761Z,12.00
2022-10-26T06:55:31.180Z,12.10
2022-10-26T06:57:57.778Z,12.10
2022-10-26T07:00:25.258Z,12.20
2022-10-26T07:02:52.393Z,12.20
2022-10-26T07:05:19.215Z,12.20
2022-10-26T07:07:47.017Z,12.20
2022-10-26T07:10:14.560Z,12.30
2022-10-26T07:12:41.087Z,12.30
2022-10-26T07:15:11.959Z,12.40
2022-10-26T07:17:48.689Z,12.40
2022-10-26T07:20:19.184Z,12.40
2022-10-26T07:22:45.735Z,12.50
2022-10-26T07:25:12.575Z,12.50
2022-10-26T07:27:39.234Z,12.50
2022-10-26T07:30:06.059Z,12.50
2022-10-26T07:32:33.132Z,12.50
2022-10-26T07:34:59.576Z,12.60
2022-10-26T07:37:26.065Z,12.70
2022-10-26T07:39:52.576Z,12.80
2022-10-26T07:42:19.059Z,12.80
2022-10-26T07:44:45.568Z,12.80
2022-10-26T07:47:12.039Z,12.90
2022-10-26T07:49:39.073Z,13.00
2022-10-26T07:52:05.770Z,13.00
2022-10-26T07:54:32.522Z,13.10
2022-10-26T07:56:59.357Z,13.20
2022-10-26T07:59:25.907Z,13.30
2022-10-26T08:01:52.803Z,13.40
2022-10-26T08:04:19.365Z,13.50
2022-10-26T08:06:47.043Z,13.60
2022-10-26T08:09:13.564Z,13.80
2022-10-26T08:11:40.069Z,13.90
2022-10-26T08:14:06.588Z,14.10
2022-10-26T08:16:34.818Z,14.10
2022-10-26T08:19:01.347Z,14.20
2022-10-26T08:21:39.152Z,14.40
2022-10-26T08:24:06.449Z,14.50
2022-10-26T08:26:32.958Z,14.70
2022-10-26T08:28:59.488Z,14.90
2022-10-26T08:31:26.034Z,15.10
2022-10-26T08:33:52.608Z,15.40
2022-10-26T08:36:22.844Z,16.20
2022-10-26T08:38:49.421Z,17.50
2022-10-26T08:41:16.213Z,19.10
2022-10-26T08:43:48.369Z,20.00
2022-10-26T08:46:21.712Z,20.20
2022-10-26T08:48:51.004Z,20.40
2022-10-26T08:51:22.171Z,20.50
2022-10-26T08:53:48.807Z,20.20
2022-10-26T08:56:17.827Z,20.10
2022-10-26T08:58:59.054Z,19.90
2022-10-26T09:01:25.637Z,19.70
2022-10-26T09:03:52.320Z,19.50
2022-10-26T09:06:40.519Z,19.30
2022-10-26T09:09:08.234Z,19.10
2022-10-26T09:11:34.701Z,19.10
2022-10-26T09:14:10.600Z,18.80
2022-10-26T09:16:42.019Z,18.60
2022-10-26T09:19:19.076Z,18.30
2022-10-26T09:22:11.059Z,18.10
2022-10-26T09:24:41.245Z,18.00
2022-10-26T09:27:17.049Z,18.20
2022-10-26T09:29:43.931Z,18.30
2022-10-26T09:32:14.480Z,18.40
2022-10-26T09:34:48.391Z,18.30
2022-10-26T09:37:20.780Z,18.10
2022-10-26T09:40:00.472Z,18.00
2022-10-26T09:42:47.206Z,18.30
2022-10-26T09:45:27.499Z,19.40
2022-10-26T09:47:54.564Z,19.90
2022-10-26T09:50:27.192Z,21.40
2022-10-26T09:52:53.716Z,22.90
2022-10-26T09:55:22.526Z,25.30
2022-10-26T09:57:51.841Z,26.60
2022-10-26T10:00:19.658Z,27.60
2022-10-26T10:02:50.237Z,28.90
2022-10-26T10:08:21.584Z,29.80
2022-10-26T10:10:55.812Z,28.40
2022-10-26T10:13:23.366Z,27.80
2022-10-26T10:16:02.190Z,28.40
2022-10-26T10:18:28.853Z,29.00
2022-10-26T10:20:56.667Z,28.00
2022-10-26T10:23:30.935Z,26.70
2022-10-26T10:26:01.372Z,25.20
2022-10-26T10:28:28.398Z,24.30
2022-10-26T10:30:57.230Z,23.50
2022-10-26T10:33:31.456Z,22.80
2022-10-26T10:35:58.244Z,22.00
2022-10-26T10:38:24.795Z,21.50
2022-10-26T10:40:53.235Z,21.60
2022-10-26T10:43:19.977Z,23.60
2022-10-26T10:45:52.772Z,24.90
2022-10-26T10:48:22.971Z,24.50
2022-10-26T10:50:52.720Z,23.50
2022-10-26T10:53:25.604Z,23.00
2022-10-26T10:56:00.648Z,22.50
2022-10-26T10:58:35.182Z,22.40
2022-10-26T11:01:02.145Z,22.20
2022-10-26T11:03:31.673Z,22.10
2022-10-26T11:06:01.636Z,21.90
2022-10-26T11:08:34.400Z,21.70
2022-10-26T11:11:02.775Z,22.20
2022-10-26T11:13:46.388Z,22.40
2022-10-26T11:16:23.509Z,22.80
2022-10-26T11:18:56.687Z,24.80
2022-10-26T11:21:26.027Z,26.80
2022-10-26T11:23:56.025Z,28.20
2022-10-26T11:26:32.692Z,27.80
2022-10-26T11:29:01.461Z,26.60
2022-10-26T11:31:30.731Z,25.70
2022-10-26T11:34:03.806Z,24.30
2022-10-26T11:36:31.614Z,23.40
2022-10-26T11:39:07.482Z,22.90
2022-10-26T11:41:40.272Z,22.00
2022-10-26T11:44:22.282Z,21.40
2022-10-26T11:46:54.206Z,20.80
2022-10-26T11:49:27.812Z,20.50
2022-10-26T11:52:01.915Z,20.20
2022-10-26T11:54:31.637Z,20.10
2022-10-26T11:56:58.711Z,19.80
2022-10-26T11:59:29.249Z,19.50
2022-10-26T12:02:14.627Z,19.40
2022-10-26T12:04:42.233Z,19.30
2022-10-26T12:07:11.383Z,19.20
2022-10-26T12:09:39.586Z,19.30
2022-10-26T12:12:17.920Z,19.30
2022-10-26T12:14:50.454Z,19.30
2022-10-26T12:17:16.883Z,19.40
2022-10-26T12:19:47.941Z,19.40
2022-10-26T12:22:16.221Z,19.40
2022-10-26T12:24:46.294Z,19.30
2022-10-26T12:27:39.358Z,19.40
2022-10-26T12:30:11.543Z,19.30
2022-10-26T12:32:40.248Z,19.40
2022-10-26T12:35:29.590Z,19.30
2022-10-26T12:37:56.104Z,19.30
2022-10-26T12:40:39.750Z,19.20
2022-10-26T12:43:15.272Z,19.10
2022-10-26T12:45:42.316Z,19.10
2022-10-26T12:48:34.749Z,19.10
2022-10-26T12:51:21.464Z,19.10
2022-10-26T12:54:06.165Z,19.20
2022-10-26T12:56:41.957Z,19.30
2022-10-26T12:59:13.516Z,19.40
2022-10-26T13:02:00.290Z,19.40
2022-10-26T13:04:38.012Z,19.30
2022-10-26T13:07:21.749Z,19.30
2022-10-26T13:09:54.961Z,19.20
2022-10-26T13:12:21.531Z,19.20
2022-10-26T13:14:56.111Z,19.30
2022-10-26T13:17:24.641Z,19.60
2022-10-26T13:19:54.815Z,19.90
2022-10-26T13:22:21.929Z,20.00
2022-10-26T13:24:51.435Z,20.00
2022-10-26T13:27:18.591Z,20.00
2022-10-26T13:30:03.457Z,20.10
2022-10-26T13:32:39.595Z,20.20
2022-10-26T13:35:09.623Z,20.30
2022-10-26T13:37:36.213Z,20.40
2022-10-26T13:40:04.856Z,20.40
2022-10-26T13:45:10.145Z,20.80
2022-10-26T13:47:42.557Z,20.70
2022-10-26T13:50:12.471Z,20.60
2022-10-26T13:52:40.955Z,20.50
2022-10-26T13:55:20.311Z,20.60
2022-10-26T13:57:56.732Z,20.60
2022-10-26T14:00:23.496Z,20.60
2022-10-26T14:02:50.257Z,20.40
2022-10-26T14:05:18.125Z,20.30
2022-10-26T14:07:49.419Z,20.20
2022-10-26T14:10:24.063Z,20.20
2022-10-26T14:12:51.004Z,20.20
2022-10-26T14:15:22.749Z,20.20
2022-10-26T14:17:50.321Z,20.20
2022-10-26T14:20:18.503Z,20.10
2022-10-26T14:22:45.113Z,20.10
2022-10-26T14:25:47.912Z,20.00
2022-10-26T14:28:26.146Z,20.00
2022-10-26T14:30:52.678Z,19.90
2022-10-26T14:33:20.577Z,20.00
2022-10-26T14:35:47.684Z,20.00
2022-10-26T14:38:19.926Z,19.90
2022-10-26T14:40:46.505Z,19.90
2022-10-26T14:43:16.768Z,19.80
2022-10-26T14:45:49.199Z,19.80
2022-10-26T14:48:22.465Z,19.70
2022-10-26T14:50:59.528Z,19.60
2022-10-26T14:53:30.174Z,19.60
2022-10-26T14:55:57.012Z,19.60
2022-10-26T14:58:30.892Z,19.50
2022-10-26T15:01:15.887Z,19.50
2022-10-26T15:03:43.991Z,19.40
2022-10-26T15:06:29.802Z,19.40
2022-10-26T15:08:57.851Z,19.40
2022-10-26T15:11:24.819Z,19.40
2022-10-26T15:13:51.345Z,19.30
2022-10-26T15:16:23.229Z,19.30
2022-10-26T15:18:52.254Z,19.20
2022-10-26T15:21:23.261Z,19.10
2022-10-26T15:23:50.415Z,19.10
2022-10-26T15:26:16.937Z,19.00
2022-10-26T15:28:43.539Z,18.90
2022-10-26T15:31:10.956Z,18.90
2022-10-26T15:33:43.490Z,18.80
2022-10-26T15:36:15.578Z,18.80
2022-10-26T15:38:49.026Z,18.80
2022-10-26T15:41:33.546Z,18.70
2022-10-26T15:44:11.802Z,18.60
2022-10-26T15:46:42.124Z,18.60
2022-10-26T15:49:14.815Z,18.50
2022-10-26T15:51:45.202Z,18.40
2022-10-26T15:54:11.796Z,18.30
2022-10-26T15:56:39.719Z,18.30
2022-10-26T15:59:16.671Z,18.20
2022-10-26T16:01:43.476Z,18.10
2022-10-26T16:04:12.019Z,18.00
2022-10-26T16:06:39.468Z,17.90
2022-10-26T16:09:06.637Z,17.80
2022-10-26T16:11:33.353Z,17.80
2022-10-26T16:14:03.765Z,17.70
2022-10-26T16:16:30.608Z,17.70
2022-10-26T16:19:11.900Z,17.60
2022-10-26T16:21:43.640Z,17.50
2022-10-26T16:24:10.066Z,17.30
2022-10-26T16:26:36.504Z,17.30
2022-10-26T16:29:03.019Z,17.20
2022-10-26T16:31:29.411Z,17.10
2022-10-26T16:33:58.967Z,17.00
2022-10-26T16:36:28.070Z,16.90
2022-10-26T16:38:54.674Z,16.80
2022-10-26T16:41:21.177Z,16.70
2022-10-26T16:43:47.620Z,16.60
2022-10-26T16:46:15.711Z,16.50
2022-10-26T16:48:43.198Z,16.40
2022-10-26T16:51:14.172Z,16.30
2022-10-26T16:53:41.115Z,16.20
2022-10-26T16:56:11.953Z,16.10
2022-10-26T16:58:38.914Z,16.00
2022-10-26T17:01:05.676Z,15.90
2022-10-26T17:03:32.423Z,15.90
2022-10-26T17:05:59.875Z,15.80
2022-10-26T17:08:26.875Z,15.80
2022-10-26T17:10:53.968Z,15.80
2022-10-26T17:13:20.544Z,15.80
2022-10-26T17:15:47.134Z,15.70
2022-10-26T17:18:14.022Z,15.70
2022-10-26T17:20:48.045Z,15.60
2022-10-26T17:23:14.502Z,15.60
2022-10-26T17:25:40.919Z,15.60
2022-10-26T17:28:07.361Z,15.60
2022-10-26T17:30:34.937Z,15.50
2022-10-26T17:33:01.900Z,15.40
2022-10-26T17:35:28.677Z,15.40
2022-10-26T17:37:55.136Z,15.30
2022-10-26T17:40:21.558Z,15.30
2022-10-26T17:42:48.071Z,15.20
2022-10-26T17:45:14.544Z,15.10
2022-10-26T17:47:40.952Z,15.00
2022-10-26T17:50:07.656Z,15.00
2022-10-26T17:52:34.076Z,14.90
2022-10-26T17:55:02.625Z,14.80
2022-10-26T17:57:29.542Z,14.80
2022-10-26T17:59:55.941Z,14.70
2022-10-26T18:02:22.466Z,14.70
2022-10-26T18:04:48.962Z,14.70
2022-10-26T18:07:15.450Z,14.70
2022-10-26T18:09:42.083Z,14.60
2022-10-26T18:12:10.511Z,14.60
2022-10-26T18:14:37.122Z,14.60
2022-10-26T18:17:03.523Z,14.60
2022-10-26T18:19:29.960Z,14.60
2022-10-26T18:21:56.459Z,14.60
2022-10-26T18:24:22.911Z,14.60
2022-10-26T18:26:49.443Z,14.50
2022-10-26T18:29:15.928Z,14.50
2022-10-26T18:31:43.952Z,14.50
2022-10-26T18:34:10.663Z,14.60
2022-10-26T18:39:08.579Z,14.50
2022-10-26T18:41:35.019Z,14.50
2022-10-26T18:44:02.128Z,14.40
2022-10-26T18:46:33.729Z,14.40
2022-10-26T18:49:00.797Z,14.40
2022-10-26T18:51:31.486Z,14.40
2022-10-26T18:53:58.843Z,14.40
2022-10-26T18:56:25.700Z,14.30
2022-10-26T18:58:53.135Z,14.30
2022-10-26T19:01:27.545Z,14.30
2022-10-26T19:03:58.422Z,14.30
2022-10-26T19:06:26.780Z,14.30
2022-10-26T19:08:53.539Z,14.30
2022-10-26T19:11:20.714Z,14.30
2022-10-26T19:13:47.249Z,14.30
2022-10-26T19:16:21.771Z,14.40
2022-10-26T19:18:59.933Z,14.40
2022-10-26T19:21:28.080Z,14.30
2022-10-26T19:23:58.884Z,14.30
2022-10-26T19:26:28.751Z,14.30
2022-10-26T19:29:02.004Z,14.20
2022-10-26T19:31:46.927Z,14.20
2022-10-26T19:34:18.246Z,14.10
2022-10-26T19:36:58.723Z,14.00
2022-10-26T19:39:36.039Z,14.00
2022-10-26T19:42:11.862Z,14.00
2022-10-26T19:44:48.147Z,14.10
2022-10-26T19:47:21.361Z,14.20
2022-10-26T19:50:01.485Z,14.20
2022-10-26T19:52:38.199Z,14.20
2022-10-26T19:55:16.552Z,14.20
2022-10-26T19:57:46.967Z,14.20
2022-10-26T20:00:26.414Z,14.10
2022-10-26T20:02:56.725Z,14.00
2022-10-26T20:05:40.162Z,13.90
2022-10-26T20:08:08.946Z,13.90
2022-10-26T20:10:55.222Z,13.80
2022-10-26T20:13:25.262Z,13.80
2022-10-26T20:16:10.993Z,13.80
2022-10-26T20:18:55.000Z,13.80
2022-10-26T20:21:35.276Z,13.80
2022-10-26T20:24:14.581Z,13.70
2022-10-26T20:27:13.272Z,13.70
2022-10-26T20:29:53.097Z,13.60
2022-10-26T20:32:23.758Z,13.60
2022-10-26T20:35:06.161Z,13.60
2022-10-26T20:37:38.742Z,13.60
2022-10-26T20:40:17.976Z,13.60
2022-10-26T20:45:38.373Z,13.60
2022-10-26T20:48:06.387Z,13.60
2022-10-26T20:51:00.297Z,13.60
2022-10-26T20:53:32.799Z,13.60
2022-10-26T20:56:07.825Z,13.50
2022-10-26T20:59:02.730Z,13.50
2022-10-26T21:01:31.008Z,13.50
2022-10-26T21:04:11.563Z,13.50
2022-10-26T21:06:45.390Z,13.50
2022-10-26T21:09:23.280Z,13.50
2022-10-26T21:11:56.081Z,13.50
2022-10-26T21:14:47.551Z,13.50
2022-10-26T21:17:18.624Z,13.50
2022-10-26T21:19:49.222Z,13.50
2022-10-26T21:22:17.022Z,13.30
2022-10-26T21:24:46.449Z,13.30
2022-10-26T21:27:22.856Z,13.20
2022-10-26T21:29:57.145Z,13.10
2022-10-26T21:32:30.011Z,13.00
2022-10-26T21:35:00.411Z,12.90
2022-10-26T21:37:33.709Z,12.90
2022-10-26T21:40:03.516Z,12.80
2022-10-26T21:42:41.336Z,12.80
2022-10-26T21:45:16.150Z,12.70
2022-10-26T21:47:46.569Z,12.70
2022-10-26T21:50:13.693Z,12.60
2022-10-26T21:52:42.158Z,12.50
2022-10-26T21:55:22.255Z,12.50
2022-10-26T21:58:09.072Z,12.50
2022-10-26T22:00:38.469Z,12.50
2022-10-26T22:03:16.473Z,12.60
2022-10-26T22:05:55.502Z,12.70
2022-10-26T22:08:22.759Z,12.90
2022-10-26T22:10:54.601Z,12.90
2022-10-26T22:13:30.737Z,13.00
2022-10-26T22:16:18.900Z,12.90
2022-10-26T22:18:46.479Z,12.80
2022-10-26T22:21:28.911Z,12.60
2022-10-26T22:23:56.647Z,12.50
2022-10-26T22:26:28.092Z,12.40
2022-10-26T22:29:02.543Z,12.30
2022-10-26T22:31:39.751Z,12.20
2022-10-26T22:34:18.725Z,12.10
2022-10-26T22:37:04.227Z,12.00
2022-10-26T22:39:31.910Z,12.00
2022-10-26T22:42:06.684Z,11.90
2022-10-26T22:44:38.971Z,11.90
2022-10-26T22:47:15.437Z,11.80
2022-10-26T22:49:52.076Z,11.70
2022-10-26T22:52:30.621Z,11.70
2022-10-26T22:55:38.921Z,11.60
2022-10-26T22:58:12.331Z,11.60
2022-10-26T23:00:48.991Z,11.60
2022-10-26T23:03:18.919Z,11.50
2022-10-26T23:06:00.527Z,11.40
2022-10-26T23:08:29.499Z,11.40
2022-10-26T23:11:03.410Z,11.40
2022-10-26T23:13:34.041Z,11.40
2022-10-26T23:16:17.695Z,11.40
2022-10-26T23:18:51.322Z,11.30
2022-10-26T23:21:19.567Z,11.30
2022-10-26T23:23:53.280Z,11.30
2022-10-26T23:26:33.715Z,11.30
2022-10-26T23:29:07.215Z,11.20
2022-10-26T23:31:44.995Z,11.20
2022-10-26T23:34:18.826Z,11.20
2022-10-26T23:36:53.931Z,11.20
2022-10-26T23:39:32.663Z,11.20
2022-10-26T23:42:00.366Z,11.20
2022-10-26T23:44:33.346Z,11.10
2022-10-26T23:47:16.085Z,11.10
2022-10-26T23:50:05.533Z,11.10
2022-10-26T23:52:35.957Z,11.10
2022-10-26T23:55:04.417Z,11.10
2022-10-26T23:57:34.643Z,11.10
